sensor_id;sensor_type;location;lat;lon;timestamp;temperature;humidity
22716;DHT22;11525;51.152;4.456;2022-10-29T00:01:46;16.00;99.90
22716;DHT22;11525;51.152;4.456;2022-10-29T00:04:12;15.90;99.90
22716;DHT22;11525;51.152;4.456;2022-10-29T00:06:38;15.90;99.90
22716;DHT22;11525;51.152;4.456;2022-10-29T00:09:04;15.80;99.90
22716;DHT22;11525;51.152;4.456;2022-10-29T00:11:30;15.80;99.90
22716;DHT22;11525;51.152;4.456;2022-10-29T00:13:59;15.80;99.90
22716;DHT22;11525;51.152;4.456;2022-10-29T00:16:28;15.80;99.90
22716;DHT22;11525;51.152;4.456;2022-10-29T00:18:55;15.80;99.90
22716;DHT22;11525;51.152;4.456;2022-10-29T00:21:25;15.80;99.90
22716;DHT22;11525;51.152;4.456;2022-10-29T00:23:51;15.80;99.90
22716;DHT22;11525;51.152;4.456;2022-10-29T00:26:19;15.60;99.90
22716;DHT22;11525;51.152;4.456;2022-10-29T00:28:46;15.50;99.90
22716;DHT22;11525;51.152;4.456;2022-10-29T00:31:16;15.50;99.90
22716;DHT22;11525;51.152;4.456;2022-10-29T00:33:44;15.50;99.90
22716;DHT22;11525;51.152;4.456;2022-10-29T00:36:13;15.50;99.90
22716;DHT22;11525;51.152;4.456;2022-10-29T00:38:40;15.50;99.90
22716;DHT22;11525;51.152;4.456;2022-10-29T00:41:17;15.60;99.90
22716;DHT22;11525;51.152;4.456;2022-10-29T00:43:46;15.60;99.90
22716;DHT22;11525;51.152;4.456;2022-10-29T00:46:31;15.50;99.90
22716;DHT22;11525;51.152;4.456;2022-10-29T00:49:02;15.50;99.90
22716;DHT22;11525;51.152;4.456;2022-10-29T00:51:29;15.40;99.90
22716;DHT22;11525;51.152;4.456;2022-10-29T00:54:05;15.40;99.90
22716;DHT22;11525;51.152;4.456;2022-10-29T00:56:35;15.40;99.90
22716;DHT22;11525;51.152;4.456;2022-10-29T00:59:04;15.30;99.90
22716;DHT22;11525;51.152;4.456;2022-10-29T01:01:31;15.20;99.90
22716;DHT22;11525;51.152;4.456;2022-10-29T01:03:57;15.20;99.90
22716;DHT22;11525;51.152;4.456;2022-10-29T01:06:25;15.20;99.90
22716;DHT22;11525;51.152;4.456;2022-10-29T01:08:53;15.20;99.90
22716;DHT22;11525;51.152;4.456;2022-10-29T01:19:54;15.20;99.90
22716;DHT22;11525;51.152;4.456;2022-10-29T01:33:37;15.20;99.90
22716;DHT22;11525;51.152;4.456;2022-10-29T01:36:16;15.10;99.90
22716;DHT22;11525;51.152;4.456;2022-10-29T01:38:51;15.10;99.90
22716;DHT22;11525;51.152;4.456;2022-10-29T01:41:30;15.10;99.90
22716;DHT22;11525;51.152;4.456;2022-10-29T01:44:04;15.10;99.90
22716;DHT22;11525;51.152;4.456;2022-10-29T01:49:07;15.20;99.90
22716;DHT22;11525;51.152;4.456;2022-10-29T01:51:35;15.10;99.90
22716;DHT22;11525;51.152;4.456;2022-10-29T01:54:10;15.00;99.90
22716;DHT22;11525;51.152;4.456;2022-10-29T01:56:36;15.00;99.90
22716;DHT22;11525;51.152;4.456;2022-10-29T01:59:07;15.00;99.90
22716;DHT22;11525;51.152;4.456;2022-10-29T02:02:05;15.00;99.90
22716;DHT22;11525;51.152;4.456;2022-10-29T02:05:10;14.90;99.90
22716;DHT22;11525;51.152;4.456;2022-10-29T02:07:49;14.90;99.90
22716;DHT22;11525;51.152;4.456;2022-10-29T02:10:32;14.90;99.90
22716;DHT22;11525;51.152;4.456;2022-10-29T02:13:01;14.90;99.90
22716;DHT22;11525;51.152;4.456;2022-10-29T02:15:41;14.80;99.90
22716;DHT22;11525;51.152;4.456;2022-10-29T02:18:09;14.90;99.90
22716;DHT22;11525;51.152;4.456;2022-10-29T02:20:44;15.00;99.90
22716;DHT22;11525;51.152;4.456;2022-10-29T02:23:10;14.90;99.90
22716;DHT22;11525;51.152;4.456;2022-10-29T02:25:36;14.90;99.90
22716;DHT22;11525;51.152;4.456;2022-10-29T02:28:02;14.90;99.90
22716;DHT22;11525;51.152;4.456;2022-10-29T02:30:29;14.80;99.90
22716;DHT22;11525;51.152;4.456;2022-10-29T02:32:54;14.90;99.90
22716;DHT22;11525;51.152;4.456;2022-10-29T02:35:20;14.90;99.90
22716;DHT22;11525;51.152;4.456;2022-10-29T02:37:46;14.90;99.90
22716;DHT22;11525;51.152;4.456;2022-10-29T02:40:13;14.80;99.90
22716;DHT22;11525;51.152;4.456;2022-10-29T02:42:39;14.70;99.90
22716;DHT22;11525;51.152;4.456;2022-10-29T02:45:08;14.70;99.90
22716;DHT22;11525;51.152;4.456;2022-10-29T02:47:34;14.70;99.90
22716;DHT22;11525;51.152;4.456;2022-10-29T02:50:00;14.70;99.90
22716;DHT22;11525;51.152;4.456;2022-10-29T02:52:26;14.80;99.90
22716;DHT22;11525;51.152;4.456;2022-10-29T02:54:52;14.80;99.90
22716;DHT22;11525;51.152;4.456;2022-10-29T02:57:18;14.90;99.90
22716;DHT22;11525;51.152;4.456;2022-10-29T02:59:47;15.00;99.90
22716;DHT22;11525;51.152;4.456;2022-10-29T03:02:13;15.00;99.90
22716;DHT22;11525;51.152;4.456;2022-10-29T03:04:39;15.10;99.90
22716;DHT22;11525;51.152;4.456;2022-10-29T03:07:06;15.10;99.90
22716;DHT22;11525;51.152;4.456;2022-10-29T03:09:32;15.20;99.90
22716;DHT22;11525;51.152;4.456;2022-10-29T03:11:58;15.20;99.90
22716;DHT22;11525;51.152;4.456;2022-10-29T03:14:24;15.40;99.90
22716;DHT22;11525;51.152;4.456;2022-10-29T03:16:50;15.30;99.90
22716;DHT22;11525;51.152;4.456;2022-10-29T03:19:15;15.30;99.90
22716;DHT22;11525;51.152;4.456;2022-10-29T03:21:41;15.20;99.90
22716;DHT22;11525;51.152;4.456;2022-10-29T03:24:07;15.20;99.90
22716;DHT22;11525;51.152;4.456;2022-10-29T03:26:33;15.20;99.90
22716;DHT22;11525;51.152;4.456;2022-10-29T03:28:59;15.40;99.90
22716;DHT22;11525;51.152;4.456;2022-10-29T03:31:25;15.40;99.90
22716;DHT22;11525;51.152;4.456;2022-10-29T03:33:54;15.50;99.90
22716;DHT22;11525;51.152;4.456;2022-10-29T03:36:20;15.40;99.90
22716;DHT22;11525;51.152;4.456;2022-10-29T03:38:46;15.40;99.90
22716;DHT22;11525;51.152;4.456;2022-10-29T03:41:12;15.60;99.90
22716;DHT22;11525;51.152;4.456;2022-10-29T03:43:38;15.60;99.90
22716;DHT22;11525;51.152;4.456;2022-10-29T03:46:05;15.60;99.90
22716;DHT22;11525;51.152;4.456;2022-10-29T03:48:31;15.70;99.90
22716;DHT22;11525;51.152;4.456;2022-10-29T03:51:00;15.60;99.90
22716;DHT22;11525;51.152;4.456;2022-10-29T03:53:31;15.60;99.90
22716;DHT22;11525;51.152;4.456;2022-10-29T03:55:57;15.60;99.90
22716;DHT22;11525;51.152;4.456;2022-10-29T03:58:24;15.60;99.90
22716;DHT22;11525;51.152;4.456;2022-10-29T04:00:58;15.70;99.90
22716;DHT22;11525;51.152;4.456;2022-10-29T04:03:26;15.60;99.90
22716;DHT22;11525;51.152;4.456;2022-10-29T04:05:53;15.60;99.90
22716;DHT22;11525;51.152;4.456;2022-10-29T04:08:19;15.60;99.90
22716;DHT22;11525;51.152;4.456;2022-10-29T04:10:46;15.50;99.90
22716;DHT22;11525;51.152;4.456;2022-10-29T04:13:18;15.50;99.90
22716;DHT22;11525;51.152;4.456;2022-10-29T04:15:44;15.60;99.90
22716;DHT22;11525;51.152;4.456;2022-10-29T04:18:11;15.70;99.90
22716;DHT22;11525;51.152;4.456;2022-10-29T04:20:43;15.70;99.90
22716;DHT22;11525;51.152;4.456;2022-10-29T04:23:18;15.60;99.90
22716;DHT22;11525;51.152;4.456;2022-10-29T04:25:56;15.60;99.90
22716;DHT22;11525;51.152;4.456;2022-10-29T04:28:22;15.50;99.90
22716;DHT22;11525;51.152;4.456;2022-10-29T04:30:48;15.50;99.90
22716;DHT22;11525;51.152;4.456;2022-10-29T04:33:14;15.50;99.90
22716;DHT22;11525;51.152;4.456;2022-10-29T04:35:40;15.60;99.90
22716;DHT22;11525;51.152;4.456;2022-10-29T04:38:10;15.60;99.90
22716;DHT22;11525;51.152;4.456;2022-10-29T04:40:37;15.50;99.90
22716;DHT22;11525;51.152;4.456;2022-10-29T04:43:03;15.50;99.90
22716;DHT22;11525;51.152;4.456;2022-10-29T04:45:29;15.40;99.90
22716;DHT22;11525;51.152;4.456;2022-10-29T04:48:02;15.30;99.90
22716;DHT22;11525;51.152;4.456;2022-10-29T04:50:29;15.40;99.90
22716;DHT22;11525;51.152;4.456;2022-10-29T04:52:59;15.40;99.90
22716;DHT22;11525;51.152;4.456;2022-10-29T04:55:30;15.50;99.90
22716;DHT22;11525;51.152;4.456;2022-10-29T04:57:56;15.60;99.90
22716;DHT22;11525;51.152;4.456;2022-10-29T05:01:08;15.50;99.90
22716;DHT22;11525;51.152;4.456;2022-10-29T05:03:12;15.80;99.90
22716;DHT22;11525;51.152;4.456;2022-10-29T05:05:39;15.80;99.90
22716;DHT22;11525;51.152;4.456;2022-10-29T05:08:06;15.80;99.90
22716;DHT22;11525;51.152;4.456;2022-10-29T05:10:37;15.90;99.90
22716;DHT22;11525;51.152;4.456;2022-10-29T05:13:06;15.90;99.90
22716;DHT22;11525;51.152;4.456;2022-10-29T05:15:33;16.00;99.90
22716;DHT22;11525;51.152;4.456;2022-10-29T05:17:59;16.10;99.90
22716;DHT22;11525;51.152;4.456;2022-10-29T05:20:26;15.90;99.90
22716;DHT22;11525;51.152;4.456;2022-10-29T05:23:06;15.90;99.90
22716;DHT22;11525;51.152;4.456;2022-10-29T05:25:34;15.90;99.90
22716;DHT22;11525;51.152;4.456;2022-10-29T05:28:10;15.80;99.90
22716;DHT22;11525;51.152;4.456;2022-10-29T05:30:36;15.90;99.90
22716;DHT22;11525;51.152;4.456;2022-10-29T05:33:10;15.90;99.90
22716;DHT22;11525;51.152;4.456;2022-10-29T05:35:37;15.90;99.90
22716;DHT22;11525;51.152;4.456;2022-10-29T05:38:03;15.90;99.90
22716;DHT22;11525;51.152;4.456;2022-10-29T05:40:29;15.90;99.90
22716;DHT22;11525;51.152;4.456;2022-10-29T05:42:55;15.80;99.90
22716;DHT22;11525;51.152;4.456;2022-10-29T05:45:21;15.60;99.90
22716;DHT22;11525;51.152;4.456;2022-10-29T05:47:47;15.50;99.90
22716;DHT22;11525;51.152;4.456;2022-10-29T05:50:13;15.60;99.90
22716;DHT22;11525;51.152;4.456;2022-10-29T05:52:39;15.60;99.90
22716;DHT22;11525;51.152;4.456;2022-10-29T05:55:06;15.60;99.90
22716;DHT22;11525;51.152;4.456;2022-10-29T05:57:31;15.60;99.90
22716;DHT22;11525;51.152;4.456;2022-10-29T05:59:57;15.60;99.90
22716;DHT22;11525;51.152;4.456;2022-10-29T06:02:23;15.50;99.90
22716;DHT22;11525;51.152;4.456;2022-10-29T06:04:49;15.40;99.90
22716;DHT22;11525;51.152;4.456;2022-10-29T06:07:15;15.40;99.90
22716;DHT22;11525;51.152;4.456;2022-10-29T06:09:41;15.40;99.90
22716;DHT22;11525;51.152;4.456;2022-10-29T06:12:07;15.30;99.90
22716;DHT22;11525;51.152;4.456;2022-10-29T06:14:33;15.20;99.90
22716;DHT22;11525;51.152;4.456;2022-10-29T06:17:00;15.30;99.90
22716;DHT22;11525;51.152;4.456;2022-10-29T06:19:26;15.20;99.90
22716;DHT22;11525;51.152;4.456;2022-10-29T06:21:52;15.30;99.90
22716;DHT22;11525;51.152;4.456;2022-10-29T06:24:18;15.20;99.90
22716;DHT22;11525;51.152;4.456;2022-10-29T06:26:44;15.20;99.90
22716;DHT22;11525;51.152;4.456;2022-10-29T06:29:10;15.20;99.90
22716;DHT22;11525;51.152;4.456;2022-10-29T06:31:36;15.20;99.90
22716;DHT22;11525;51.152;4.456;2022-10-29T06:34:02;15.20;99.90
22716;DHT22;11525;51.152;4.456;2022-10-29T06:36:28;15.30;99.90
22716;DHT22;11525;51.152;4.456;2022-10-29T06:38:54;15.20;99.90
22716;DHT22;11525;51.152;4.456;2022-10-29T06:41:20;15.00;99.90
22716;DHT22;11525;51.152;4.456;2022-10-29T06:43:49;15.00;99.90
22716;DHT22;11525;51.152;4.456;2022-10-29T06:49:30;15.00;99.90
22716;DHT22;11525;51.152;4.456;2022-10-29T06:52:02;15.30;99.90
22716;DHT22;11525;51.152;4.456;2022-10-29T06:54:40;15.40;99.90
22716;DHT22;11525;51.152;4.456;2022-10-29T06:57:06;15.60;99.90
22716;DHT22;11525;51.152;4.456;2022-10-29T06:59:34;15.90;99.90
22716;DHT22;11525;51.152;4.456;2022-10-29T07:02:02;16.10;99.90
22716;DHT22;11525;51.152;4.456;2022-10-29T07:04:28;16.40;99.90
22716;DHT22;11525;51.152;4.456;2022-10-29T07:06:54;16.70;99.90
22716;DHT22;11525;51.152;4.456;2022-10-29T07:09:20;16.70;99.90
22716;DHT22;11525;51.152;4.456;2022-10-29T07:11:46;16.80;99.90
22716;DHT22;11525;51.152;4.456;2022-10-29T07:14:12;16.90;99.90
22716;DHT22;11525;51.152;4.456;2022-10-29T07:16:38;16.70;99.90
22716;DHT22;11525;51.152;4.456;2022-10-29T07:19:04;16.70;99.90
22716;DHT22;11525;51.152;4.456;2022-10-29T07:21:29;16.70;99.90
22716;DHT22;11525;51.152;4.456;2022-10-29T07:23:55;16.70;99.90
22716;DHT22;11525;51.152;4.456;2022-10-29T07:26:21;16.60;99.90
22716;DHT22;11525;51.152;4.456;2022-10-29T07:28:47;16.50;99.90
22716;DHT22;11525;51.152;4.456;2022-10-29T07:31:13;16.50;99.90
22716;DHT22;11525;51.152;4.456;2022-10-29T07:33:39;16.60;99.90
22716;DHT22;11525;51.152;4.456;2022-10-29T07:36:17;16.70;99.90
22716;DHT22;11525;51.152;4.456;2022-10-29T07:38:46;16.50;99.90
22716;DHT22;11525;51.152;4.456;2022-10-29T07:41:17;16.60;99.90
22716;DHT22;11525;51.152;4.456;2022-10-29T07:43:43;16.70;99.90
22716;DHT22;11525;51.152;4.456;2022-10-29T07:46:09;16.80;99.90
22716;DHT22;11525;51.152;4.456;2022-10-29T07:48:44;17.00;99.90
22716;DHT22;11525;51.152;4.456;2022-10-29T07:51:22;17.30;99.90
22716;DHT22;11525;51.152;4.456;2022-10-29T07:54:06;17.50;99.90
22716;DHT22;11525;51.152;4.456;2022-10-29T07:57:17;17.60;99.90
22716;DHT22;11525;51.152;4.456;2022-10-29T08:02:51;17.30;99.90
22716;DHT22;11525;51.152;4.456;2022-10-29T08:08:57;17.20;99.90
22716;DHT22;11525;51.152;4.456;2022-10-29T08:15:26;17.20;99.90
22716;DHT22;11525;51.152;4.456;2022-10-29T08:18:18;17.10;99.90
22716;DHT22;11525;51.152;4.456;2022-10-29T08:21:06;17.10;99.90
22716;DHT22;11525;51.152;4.456;2022-10-29T08:27:37;17.20;99.90
22716;DHT22;11525;51.152;4.456;2022-10-29T08:30:11;17.20;99.90
22716;DHT22;11525;51.152;4.456;2022-10-29T08:53:46;18.00;99.90
22716;DHT22;11525;51.152;4.456;2022-10-29T09:10:07;18.50;99.90
22716;DHT22;11525;51.152;4.456;2022-10-29T09:30:16;21.40;99.90
22716;DHT22;11525;51.152;4.456;2022-10-29T09:36:12;21.50;99.90
22716;DHT22;11525;51.152;4.456;2022-10-29T09:39:43;22.50;99.90
22716;DHT22;11525;51.152;4.456;2022-10-29T09:52:40;25.00;99.90
22716;DHT22;11525;51.152;4.456;2022-10-29T09:55:22;25.40;99.90
22716;DHT22;11525;51.152;4.456;2022-10-29T10:04:47;28.20;99.90
22716;DHT22;11525;51.152;4.456;2022-10-29T10:26:52;29.70;94.80
22716;DHT22;11525;51.152;4.456;2022-10-29T10:33:09;26.60;99.90
22716;DHT22;11525;51.152;4.456;2022-10-29T10:42:48;24.60;99.90
22716;DHT22;11525;51.152;4.456;2022-10-29T10:45:39;24.20;99.90
22716;DHT22;11525;51.152;4.456;2022-10-29T10:48:22;23.90;99.90
22716;DHT22;11525;51.152;4.456;2022-10-29T10:51:33;23.70;99.90
22716;DHT22;11525;51.152;4.456;2022-10-29T10:54:22;23.60;99.90
22716;DHT22;11525;51.152;4.456;2022-10-29T11:00:45;23.80;99.90
22716;DHT22;11525;51.152;4.456;2022-10-29T11:04:17;23.60;99.90
22716;DHT22;11525;51.152;4.456;2022-10-29T11:13:28;23.40;99.90
22716;DHT22;11525;51.152;4.456;2022-10-29T11:19:46;23.50;99.90
22716;DHT22;11525;51.152;4.456;2022-10-29T11:25:25;23.50;99.90
22716;DHT22;11525;51.152;4.456;2022-10-29T11:35:35;23.50;99.90
22716;DHT22;11525;51.152;4.456;2022-10-29T11:38:53;23.40;99.90
22716;DHT22;11525;51.152;4.456;2022-10-29T11:41:59;23.40;99.90
22716;DHT22;11525;51.152;4.456;2022-10-29T11:44:37;23.50;99.90
22716;DHT22;11525;51.152;4.456;2022-10-29T11:50:51;23.40;99.90
22716;DHT22;11525;51.152;4.456;2022-10-29T11:56:57;23.70;99.90
22716;DHT22;11525;51.152;4.456;2022-10-29T12:00:06;23.80;99.90
22716;DHT22;11525;51.152;4.456;2022-10-29T12:05:49;23.80;99.90
22716;DHT22;11525;51.152;4.456;2022-10-29T12:09:01;23.90;99.90
22716;DHT22;11525;51.152;4.456;2022-10-29T12:11:49;23.80;99.90
22716;DHT22;11525;51.152;4.456;2022-10-29T12:18:00;24.20;99.90
22716;DHT22;11525;51.152;4.456;2022-10-29T12:21:19;24.20;99.90
22716;DHT22;11525;51.152;4.456;2022-10-29T12:34:35;24.20;99.90
22716;DHT22;11525;51.152;4.456;2022-10-29T12:57:55;24.30;99.90
22716;DHT22;11525;51.152;4.456;2022-10-29T13:13:21;24.60;99.90
22716;DHT22;11525;51.152;4.456;2022-10-29T13:16:24;24.60;99.90
22716;DHT22;11525;51.152;4.456;2022-10-29T13:19:27;24.60;99.90
22716;DHT22;11525;51.152;4.456;2022-10-29T13:22:56;24.70;99.90
22716;DHT22;11525;51.152;4.456;2022-10-29T13:50:38;24.60;99.90
22716;DHT22;11525;51.152;4.456;2022-10-29T13:53:27;24.60;99.90
22716;DHT22;11525;51.152;4.456;2022-10-29T14:09:53;25.10;99.90
22716;DHT22;11525;51.152;4.456;2022-10-29T14:12:55;24.90;99.90
22716;DHT22;11525;51.152;4.456;2022-10-29T14:19:31;25.00;99.90
22716;DHT22;11525;51.152;4.456;2022-10-29T14:35:52;24.50;99.90
22716;DHT22;11525;51.152;4.456;2022-10-29T14:48:52;24.20;99.90
22716;DHT22;11525;51.152;4.456;2022-10-29T14:55:32;24.10;99.90
22716;DHT22;11525;51.152;4.456;2022-10-29T14:58:34;24.10;99.90
22716;DHT22;11525;51.152;4.456;2022-10-29T15:08:56;23.90;99.90
22716;DHT22;11525;51.152;4.456;2022-10-29T15:11:46;23.90;99.90
22716;DHT22;11525;51.152;4.456;2022-10-29T15:14:47;23.80;99.90
22716;DHT22;11525;51.152;4.456;2022-10-29T15:24:31;23.60;99.90
22716;DHT22;11525;51.152;4.456;2022-10-29T15:27:03;23.50;99.90
22716;DHT22;11525;51.152;4.456;2022-10-29T15:29:46;23.50;99.90
22716;DHT22;11525;51.152;4.456;2022-10-29T15:32:32;23.40;99.90
22716;DHT22;11525;51.152;4.456;2022-10-29T15:35:12;23.20;99.90
22716;DHT22;11525;51.152;4.456;2022-10-29T15:39:17;23.10;99.90
22716;DHT22;11525;51.152;4.456;2022-10-29T15:41:28;23.10;99.90
22716;DHT22;11525;51.152;4.456;2022-10-29T15:48:26;23.20;99.90
22716;DHT22;11525;51.152;4.456;2022-10-29T15:50:58;23.20;99.90
22716;DHT22;11525;51.152;4.456;2022-10-29T16:01:16;22.80;99.90
22716;DHT22;11525;51.152;4.456;2022-10-29T16:04:10;22.60;99.90
22716;DHT22;11525;51.152;4.456;2022-10-29T16:13:02;22.40;99.90
22716;DHT22;11525;51.152;4.456;2022-10-29T16:15:28;22.40;99.90
22716;DHT22;11525;51.152;4.456;2022-10-29T16:17:54;22.10;99.90
22716;DHT22;11525;51.152;4.456;2022-10-29T16:20:26;22.10;99.90
22716;DHT22;11525;51.152;4.456;2022-10-29T16:22:55;22.10;99.90
22716;DHT22;11525;51.152;4.456;2022-10-29T16:25:24;21.90;99.90
22716;DHT22;11525;51.152;4.456;2022-10-29T16:27:57;21.90;99.90
22716;DHT22;11525;51.152;4.456;2022-10-29T16:30:23;21.80;99.90
22716;DHT22;11525;51.152;4.456;2022-10-29T16:35:42;21.60;99.90
22716;DHT22;11525;51.152;4.456;2022-10-29T16:45:35;21.10;99.90
22716;DHT22;11525;51.152;4.456;2022-10-29T16:58:38;21.00;99.90
22716;DHT22;11525;51.152;4.456;2022-10-29T17:04:52;20.90;99.90
22716;DHT22;11525;51.152;4.456;2022-10-29T17:11:13;20.90;99.90
22716;DHT22;11525;51.152;4.456;2022-10-29T17:35:01;20.50;99.90
22716;DHT22;11525;51.152;4.456;2022-10-29T18:15:28;20.20;99.90
22716;DHT22;11525;51.152;4.456;2022-10-29T18:34:45;19.70;99.90
22716;DHT22;11525;51.152;4.456;2022-10-29T19:04:16;19.30;99.90
22716;DHT22;11525;51.152;4.456;2022-10-29T19:11:06;19.20;99.90
22716;DHT22;11525;51.152;4.456;2022-10-29T19:13:33;19.10;99.90
22716;DHT22;11525;51.152;4.456;2022-10-29T19:23:02;19.00;99.90
22716;DHT22;11525;51.152;4.456;2022-10-29T19:26:22;18.90;99.90
22716;DHT22;11525;51.152;4.456;2022-10-29T19:29:03;18.80;99.90
22716;DHT22;11525;51.152;4.456;2022-10-29T19:31:44;18.80;99.90
22716;DHT22;11525;51.152;4.456;2022-10-29T19:34:16;18.60;99.90
22716;DHT22;11525;51.152;4.456;2022-10-29T19:46:40;18.30;99.90
22716;DHT22;11525;51.152;4.456;2022-10-29T19:52:42;18.00;99.90
22716;DHT22;11525;51.152;4.456;2022-10-29T19:55:50;18.00;99.90
22716;DHT22;11525;51.152;4.456;2022-10-29T20:01:59;17.80;99.90
22716;DHT22;11525;51.152;4.456;2022-10-29T20:04:28;17.80;99.90
22716;DHT22;11525;51.152;4.456;2022-10-29T20:06:54;17.70;99.90
22716;DHT22;11525;51.152;4.456;2022-10-29T20:09:25;17.60;99.90
22716;DHT22;11525;51.152;4.456;2022-10-29T20:11:51;17.60;99.90
22716;DHT22;11525;51.152;4.456;2022-10-29T20:14:43;17.50;99.90
22716;DHT22;11525;51.152;4.456;2022-10-29T20:27:48;17.20;99.90
22716;DHT22;11525;51.152;4.456;2022-10-29T20:30:33;17.10;99.90
22716;DHT22;11525;51.152;4.456;2022-10-29T20:33:02;17.10;99.90
22716;DHT22;11525;51.152;4.456;2022-10-29T20:35:28;17.10;99.90
22716;DHT22;11525;51.152;4.456;2022-10-29T20:37:54;17.00;99.90
22716;DHT22;11525;51.152;4.456;2022-10-29T23:30:56;15.20;99.90
22716;DHT22;11525;51.152;4.456;2022-10-29T23:44:16;15.20;99.90
22716;DHT22;11525;51.152;4.456;2022-10-29T23:47:39;15.10;99.90
22716;DHT22;11525;51.152;4.456;2022-10-29T23:50:05;15.10;99.90
22716;DHT22;11525;51.152;4.456;2022-10-29T23:52:54;15.20;99.90
